METAR Data
IDs: Format: Raw Decoded Include TAF

Data at: 1800 UTC 16 Oct 2021

KGDJ 161755Z AUTO 05009KT 10SM CLR 22/00 A3042 RMK AO2 T02180001 10218 20080
KGDJ 161735Z AUTO 05007KT 10SM CLR 21/00 A3043 RMK AO2 T02111005
KGDJ 161715Z AUTO 01009G14KT 10SM CLR 21/00 A3043 RMK AO2 T02100000
KGDJ 161655Z AUTO 01008KT 10SM CLR 20/01 A3044 RMK AO2 T01990008
KGDJ 161635Z AUTO 01004KT 10SM CLR 19/03 A3043 RMK AO2 T01930034
KGDJ 161615Z AUTO 35007KT 10SM CLR 19/05 A3043 RMK AO2 T01910046
KGDJ 161555Z AUTO 36006KT 10SM CLR 18/07 A3043 RMK AO2 T01810067
KGDJ 161535Z AUTO 36003KT 10SM CLR 17/07 A3043 RMK AO2 T01700072
KGDJ 161515Z AUTO 36004KT 10SM CLR 16/08 A3043 RMK AO2 T01620076
KGDJ 161455Z AUTO 36003KT 10SM CLR 15/08 A3042 RMK AO2 T01500082
KGDJ 161435Z AUTO 00000KT 10SM CLR 14/08 A3042 RMK AO2 T01400079
KGDJ 161415Z AUTO 36006KT 10SM CLR 13/08 A3041 RMK AO2 T01280080
KGDJ 161355Z AUTO 35006KT 10SM CLR 11/08 A3041 RMK AO2 T01130075
KGDJ 161335Z AUTO 32004KT 10SM CLR 10/07 A3040 RMK AO2 T01030067
KGDJ 161315Z AUTO 30004KT 10SM CLR 09/06 A3039 RMK AO2 T00910061
KGDJ 161255Z AUTO 29005KT 10SM CLR 08/06 A3039 RMK AO2 T00840058
KGDJ 161235Z AUTO 28004KT 10SM CLR 09/06 A3037 RMK AO2 T00850056
KGDJ 161215Z AUTO 27005KT 10SM CLR 08/05 A3037 RMK AO2 T00830053
KGDJ 161155Z AUTO 30005KT 10SM CLR 09/06 A3037 RMK AO2 T00850056 10110 20085
KGDJ 161135Z AUTO 29004KT 10SM CLR 09/06 A3036 RMK AO2 T00880055
KGDJ 161115Z AUTO 29004KT 10SM CLR 09/06 A3035 RMK AO2 T00910057
KGDJ 161055Z AUTO 29005KT 10SM CLR 09/06 A3035 RMK AO2 T00900058
KGDJ 161035Z AUTO 30006KT 10SM CLR 09/06 A3034 RMK AO2 T00910060
KGDJ 161015Z AUTO 31005KT 10SM CLR 09/06 A3034 RMK AO2 T00900059
KGDJ 160955Z AUTO 32004KT 10SM CLR 10/06 A3034 RMK AO2 T00950061
KGDJ 160935Z AUTO 30004KT 10SM CLR 10/06 A3034 RMK AO2 T00970063
KGDJ 160915Z AUTO 32004KT 10SM CLR 10/06 A3034 RMK AO2 T00970060
KGDJ 160855Z AUTO 32004KT 10SM CLR 10/07 A3034 RMK AO2 T01000065
KGDJ 160835Z AUTO 32006KT 10SM CLR 10/07 A3034 RMK AO2 T00970065
KGDJ 160815Z AUTO 32006KT 10SM CLR 10/06 A3034 RMK AO2 T01000064
KGDJ 160755Z AUTO 31005KT 10SM CLR 10/07 A3034 RMK AO2 T01010065
KGDJ 160735Z AUTO 30005KT 10SM CLR 10/06 A3034 RMK AO2 T00990064
KGDJ 160715Z AUTO 30005KT 10SM CLR 10/07 A3034 RMK AO2 T01020065
KGDJ 160655Z AUTO 30004KT 10SM CLR 10/07 A3033 RMK AO2 T01040066
KGDJ 160635Z AUTO 30005KT 10SM CLR 10/07 A3032 RMK AO2 T01000067
KGDJ 160615Z AUTO 29006KT 10SM CLR 11/07 A3032 RMK AO2 T01050066
KGDJ 160555Z AUTO 30004KT 10SM CLR 11/07 A3032 RMK AO2 T01100068 10202 20110 402400110
KGDJ 160535Z AUTO 32003KT 10SM CLR 12/07 A3031 RMK AO2 T01220065
KGDJ 160515Z AUTO 33003KT 10SM CLR 13/07 A3030 RMK AO2 T01250067
KGDJ 160455Z AUTO 33004KT 10SM CLR 13/07 A3030 RMK AO2 T01270069
KGDJ 160435Z AUTO 33005KT 10SM CLR 13/07 A3029 RMK AO2 T01300070
KGDJ 160415Z AUTO 32006KT 10SM CLR 13/07 A3029 RMK AO2 T01300071
KGDJ 160355Z AUTO 30003KT 10SM CLR 14/07 A3028 RMK AO2 T01390072
KGDJ 160335Z AUTO 32006KT 10SM CLR 14/08 A3027 RMK AO2 T01360076
KGDJ 160315Z AUTO 31005KT 10SM CLR 15/08 A3026 RMK AO2 T01450076
KGDJ 160255Z AUTO 32006KT 10SM CLR 15/08 A3025 RMK AO2 T01510080
KGDJ 160235Z AUTO 34005KT 10SM CLR 16/08 A3025 RMK AO2 T01630080
KGDJ 160215Z AUTO 34008KT 10SM CLR 17/08 A3024 RMK AO2 T01710080
KGDJ 160155Z AUTO 35006KT 10SM CLR 17/09 A3024 RMK AO2 T01720085
KGDJ 160135Z AUTO 34006KT 10SM CLR 18/08 A3022 RMK AO2 T01770084
KGDJ 160115Z AUTO 35007KT 10SM CLR 18/08 A3021 RMK AO2 T01800082
KGDJ 160055Z AUTO 35008KT 10SM CLR 19/08 A3019 RMK AO2 T01870078
KGDJ 160035Z AUTO 35008KT 10SM CLR 20/07 A3018 RMK AO2 T01950072
KGDJ 160015Z AUTO 35012G16KT 10SM CLR 20/08 A3017 RMK AO2 T01960076
KGDJ 152355Z AUTO 34011G15KT 10SM CLR 20/08 A3017 RMK AO2 T02030076 10240 20200
KGDJ 152335Z AUTO 34010G17KT 10SM CLR 21/07 A3015 RMK AO2 T02130073
KGDJ 152315Z AUTO 34013G19KT 10SM CLR 22/08 A3014 RMK AO2 T02200079
KGDJ 152255Z AUTO 34015G21KT 10SM CLR 23/08 A3014 RMK AO2 T02260079
KGDJ 152235Z AUTO 34014G20KT 10SM CLR 23/08 A3013 RMK AO2 T02300083
KGDJ 152215Z AUTO 35012G19KT 10SM CLR 24/09 A3012 RMK AO2 T02350093
KGDJ 152155Z AUTO 35014G19KT 10SM CLR 24/10 A3011 RMK AO2 T02380100
KGDJ 152135Z AUTO 34014G22KT 10SM CLR 24/10 A3011 RMK AO2 T02380097
KGDJ 152115Z AUTO 34013G20KT 10SM CLR 24/10 A3010 RMK AO2 T02390103
KGDJ 152055Z AUTO 34015G20KT 10SM CLR 24/11 A3010 RMK AO2 T02400105
KGDJ 152035Z AUTO 34014G23KT 10SM CLR 24/11 A3010 RMK AO2 T02400106
KGDJ 152015Z AUTO 33019G22KT 10SM CLR 24/11 A3009 RMK AO2 T02370114
KGDJ 151955Z AUTO 34014G22KT 10SM CLR 24/12 A3009 RMK AO2 T02360122
KGDJ 151935Z AUTO 33014G21KT 10SM SCT039 24/13 A3009 RMK AO2 T02360130
KGDJ 151915Z AUTO 33017G26KT 10SM CLR 24/13 A3008 RMK AO2 T02350130
KGDJ 151855Z AUTO 32015G19KT 10SM CLR 23/13 A3009 RMK AO2 T02300133
KGDJ 151835Z AUTO 33014G21KT 10SM SCT023 SCT030 23/14 A3009 RMK AO2 T02250140
KGDJ 151815Z AUTO 33011G16KT 10SM OVC021 21/15 A3009 RMK AO2 T02140148
KGDJ 151755Z AUTO 32014G18KT 10SM OVC017 20/15 A3010 RMK AO2 T02000149 10221 20175
KGDJ 151735Z AUTO 34012G20KT 10SM OVC015 20/15 A3009 RMK AO2 T01950150
KGDJ 151715Z AUTO 32013G17KT 10SM OVC015 20/16 A3009 RMK AO2 T01990155
KGDJ 151655Z AUTO 31014G18KT 10SM OVC013 20/15 A3008 RMK AO2 T01960154
KGDJ 151635Z AUTO 31013G19KT 10SM OVC011 19/16 A3007 RMK AO2 T01880155
KGDJ 151615Z AUTO 31013G20KT 10SM OVC007 18/16 A3007 RMK AO2 T01810156
KGDJ 151555Z AUTO 30016G20KT 10SM OVC007 18/15 A3006 RMK AO2 T01770153
KGDJ 151535Z AUTO 30012KT 10SM OVC009 18/15 A3005 RMK AO2 T01760152
KGDJ 151515Z AUTO 29014G20KT 7SM OVC009 18/15 A3004 RMK AO2 T01750150
KGDJ 151455Z AUTO 30014G20KT 10SM OVC009 18/15 A3002 RMK AO2 T01760150
KGDJ 151435Z AUTO 30018G23KT 10SM OVC011 18/16 A3001 RMK AO2 T01810155
KGDJ 151415Z AUTO 28015G19KT 10SM OVC011 19/17 A2999 RMK AO2 T01920165
KGDJ 151355Z AUTO 29015G19KT 10SM BKN011 OVC018 22/19 A2997 RMK AO2 T02150192
KGDJ 151335Z AUTO 27011G14KT 10SM SCT012 OVC018 22/20 A2995 RMK AO2 T02210202
KGDJ 151315Z AUTO 26006KT 10SM BKN010 OVC020 22/20 A2993 RMK AO2 T02200202
KGDJ 151255Z AUTO 26006KT 10SM OVC008 22/20 A2992 RMK AO2 T02200202
KGDJ 151235Z AUTO 25005KT 10SM OVC008 22/20 A2992 RMK AO2 T02200203
KGDJ 151215Z AUTO 25005KT 10SM OVC008 22/20 A2991 RMK AO2 T02200201
KGDJ 151155Z AUTO 24005KT 10SM OVC008 22/20 A2990 RMK AO2 T02200201 10235 20213
KGDJ 151135Z AUTO 20006KT 10SM BKN008 22/20 A2989 RMK AO2 T02170200
KGDJ 151115Z AUTO 18007KT 7SM CLR 22/20 A2987 RMK AO2 T02150198
KGDJ 151055Z AUTO 18004KT 7SM CLR 22/20 A2987 RMK AO2 T02160197
KGDJ 151035Z AUTO 14004KT 7SM CLR 22/20 A2986 RMK AO2 T02160197
KGDJ 151015Z AUTO 15004KT 10SM CLR 22/20 A2987 RMK AO2 T02180198
KGDJ 150955Z AUTO 15003KT 10SM CLR 22/20 A2987 RMK AO2 T02180197
KGDJ 150935Z AUTO 17006KT 10SM CLR 22/20 A2987 RMK AO2 T02180197
KGDJ 150915Z AUTO 19003KT 10SM CLR 22/20 A2987 RMK AO2 T02180195
KGDJ 150855Z AUTO 16003KT 10SM CLR 22/20 A2986 RMK AO2 T02220197
KGDJ 150835Z AUTO 15005KT 10SM CLR 22/20 A2985 RMK AO2 T02230197
KGDJ 150815Z AUTO 14004KT 10SM CLR 22/20 A2986 RMK AO2 T02210195
KGDJ 150755Z AUTO 15004KT 10SM CLR 22/20 A2986 RMK AO2 T02220195
KGDJ 150735Z AUTO 15004KT 10SM CLR 23/20 A2986 RMK AO2 T02260195
KGDJ 150715Z AUTO 15004KT 10SM CLR 23/20 A2986 RMK AO2 T02270195
KGDJ 150655Z AUTO 16004KT 10SM CLR 23/20 A2985 RMK AO2 T02280196
KGDJ 150635Z AUTO 16005KT 10SM CLR 23/20 A2985 RMK AO2 T02300197
KGDJ 150615Z AUTO 17008KT 10SM CLR 24/20 A2985 RMK AO2 T02350199